Time;durP1;ratioP1;P1;durP2;ratioP2;P2;SDS_P1;SDS_P2;PMS_P1;PMS_P2;Temp;Humidity;BMP_temperature;BMP_pressure;BME280_temperature;BME280_humidity;BME280_pressure;Samples;Min_cycle;Max_cycle;Signal;HPM_P1;HPM_P2
2022/06/14 00:00:53;;;;;;;6.07;3.28;;;;;;;;;;6152380;23;20108;-48
2022/06/14 00:03:31;;;;;;;6.75;2.55;;;;;;;;;;6141172;23;20044;-48
2022/06/14 00:05:57;;;;;;;6.20;2.50;;;;;;;;;;6148500;23;20023;-48
2022/06/14 00:08:25;;;;;;;7.88;3.00;;;;;;;;;;6147207;23;20025;-47
2022/06/14 00:10:51;;;;;;;7.97;3.20;;;;;;;;;;6145760;23;20011;-46
2022/06/14 00:13:17;;;;;;;6.93;2.83;;;;;;;;;;6148821;23;20452;-47
2022/06/14 00:15:42;;;;;;;7.70;3.03;;;;;;;;;;6142693;23;20094;-48
2022/06/14 00:18:08;;;;;;;7.20;2.95;;;;;;;;;;6150428;23;20021;-49
2022/06/14 00:20:33;;;;;;;12.13;3.42;;;;;;;;;;6173827;23;20325;-49
2022/06/14 00:22:59;;;;;;;7.80;3.10;;;;;;;;;;6178624;23;20482;-46
2022/06/14 00:25:26;;;;;;;9.70;3.88;;;;;;;;;;6175287;23;20048;-47
2022/06/14 00:27:52;;;;;;;5.60;3.13;;;;;;;;;;6179254;23;20391;-49
2022/06/14 00:30:17;;;;;;;11.13;3.50;;;;;;;;;;6145718;23;20037;-46
2022/06/14 00:32:42;;;;;;;8.10;3.28;;;;;;;;;;6179060;23;20028;-47
2022/06/14 00:35:08;;;;;;;7.43;3.35;;;;;;;;;;6177752;23;20581;-47
2022/06/14 00:37:33;;;;;;;7.38;3.15;;;;;;;;;;6175765;23;20301;-47
2022/06/14 00:39:58;;;;;;;11.55;3.33;;;;;;;;;;6178087;23;20038;-48
2022/06/14 00:42:23;;;;;;;6.43;3.63;;;;;;;;;;6177436;23;20092;-48
2022/06/14 00:45:04;;;;;;;10.32;3.55;;;;;;;;;;6177890;23;20017;-46
2022/06/14 00:47:32;;;;;;;5.55;3.15;;;;;;;;;;6177480;23;20009;-47
2022/06/14 00:49:59;;;;;;;6.10;3.83;;;;;;;;;;6174606;23;20075;-48
2022/06/14 00:52:27;;;;;;;8.35;3.30;;;;;;;;;;6173974;23;20041;-48
2022/06/14 00:54:55;;;;;;;7.80;3.47;;;;;;;;;;6177451;23;20360;-47
2022/06/14 00:57:25;;;;;;;11.52;3.55;;;;;;;;;;6175289;23;20016;-50
2022/06/14 00:59:57;;;;;;;6.45;2.88;;;;;;;;;;6173621;23;20009;-47
2022/06/14 01:02:28;;;;;;;6.40;3.30;;;;;;;;;;6175531;23;20013;-51
2022/06/14 01:04:54;;;;;;;8.25;4.43;;;;;;;;;;6179372;23;20013;-49
2022/06/14 01:07:27;;;;;;;10.82;4.13;;;;;;;;;;6172055;23;20013;-46
2022/06/14 01:10:14;;;;;;;12.10;4.25;;;;;;;;;;6180288;23;20025;-48
2022/06/14 01:12:51;;;;;;;7.55;4.40;;;;;;;;;;6175696;23;20015;-49
2022/06/14 01:15:21;;;;;;;10.82;4.18;;;;;;;;;;6174102;23;20060;-47
2022/06/14 01:17:49;;;;;;;6.20;3.78;;;;;;;;;;6178836;23;20157;-47
2022/06/14 01:20:17;;;;;;;9.23;3.65;;;;;;;;;;6172960;23;20024;-50
2022/06/14 01:22:43;;;;;;;8.80;4.28;;;;;;;;;;6180769;23;20016;-51
2022/06/14 01:25:09;;;;;;;8.20;3.85;;;;;;;;;;6175478;23;20056;-50
2022/06/14 01:27:35;;;;;;;6.25;4.25;;;;;;;;;;6179193;23;20751;-49
2022/06/14 01:30:10;;;;;;;6.90;4.45;;;;;;;;;;6175446;23;20028;-48
2022/06/14 01:32:39;;;;;;;7.78;3.85;;;;;;;;;;6172085;23;20013;-49
2022/06/14 01:35:06;;;;;;;8.18;3.70;;;;;;;;;;6180010;23;20017;-49
2022/06/14 01:37:32;;;;;;;7.30;3.97;;;;;;;;;;6173793;23;20028;-45
2022/06/14 01:39:58;;;;;;;6.07;3.83;;;;;;;;;;6177739;23;20005;-56
2022/06/14 01:42:28;;;;;;;6.97;4.22;;;;;;;;;;6175833;23;20039;-48
2022/06/14 01:45:00;;;;;;;9.20;4.38;;;;;;;;;;6178987;23;20013;-46
2022/06/14 01:47:33;;;;;;;8.52;4.40;;;;;;;;;;6174395;23;20020;-48
2022/06/14 01:52:42;;;;;;;8.05;4.07;;;;;;;;;;6167784;23;20012;-49
2022/06/14 01:55:26;;;;;;;13.45;4.95;;;;;;;;;;6173548;23;20348;-47
2022/06/14 01:58:08;;;;;;;19.35;5.38;;;;;;;;;;6175623;23;20052;-46
2022/06/14 02:00:36;;;;;;;15.15;5.05;;;;;;;;;;6173366;23;20089;-47
2022/06/14 02:06:15;;;;;;;7.57;4.05;;;;;;;;;;6146423;23;20020;-49
2022/06/14 02:08:51;;;;;;;10.15;4.47;;;;;;;;;;6177786;23;20494;-48
2022/06/14 02:11:18;;;;;;;12.43;5.85;;;;;;;;;;6164097;23;20111;-46
2022/06/14 02:13:59;;;;;;;9.65;4.63;;;;;;;;;;6168051;23;20013;-47
2022/06/14 02:16:25;;;;;;;11.98;5.05;;;;;;;;;;6174275;23;20077;-50
2022/06/14 02:18:53;;;;;;;9.32;4.70;;;;;;;;;;6177599;23;20005;-50
2022/06/14 02:21:26;;;;;;;12.43;4.95;;;;;;;;;;6176003;23;20013;-48
2022/06/14 02:23:56;;;;;;;11.38;4.75;;;;;;;;;;6176976;23;20028;-45
2022/06/14 02:26:28;;;;;;;8.68;5.63;;;;;;;;;;6173688;23;20013;-48
2022/06/14 02:28:57;;;;;;;13.13;4.85;;;;;;;;;;6177809;23;20047;-47
2022/06/14 02:31:35;;;;;;;12.98;4.72;;;;;;;;;;6175660;23;20012;-49
2022/06/14 02:34:03;;;;;;;11.02;4.63;;;;;;;;;;6176335;23;20070;-45
2022/06/14 02:36:46;;;;;;;9.93;5.10;;;;;;;;;;6149503;23;20016;-47
2022/06/14 02:39:14;;;;;;;13.50;5.15;;;;;;;;;;6175981;23;20076;-45
2022/06/14 02:41:42;;;;;;;10.40;4.47;;;;;;;;;;6177641;23;20763;-48
2022/06/14 02:44:20;;;;;;;9.52;4.80;;;;;;;;;;6173331;23;20009;-46
2022/06/14 02:46:45;;;;;;;14.48;4.97;;;;;;;;;;6175666;23;20016;-45
2022/06/14 02:49:20;;;;;;;12.03;5.37;;;;;;;;;;6179388;23;20017;-51
2022/06/14 02:51:46;;;;;;;8.95;5.10;;;;;;;;;;6177732;23;20243;-47
2022/06/14 02:54:22;;;;;;;11.55;5.40;;;;;;;;;;6148383;23;20012;-45
2022/06/14 02:56:59;;;;;;;8.07;4.82;;;;;;;;;;6177850;23;20013;-47
2022/06/14 02:59:36;;;;;;;14.43;4.95;;;;;;;;;;6180853;23;20348;-50
2022/06/14 03:02:03;;;;;;;9.38;5.40;;;;;;;;;;6181332;23;20048;-46
2022/06/14 03:04:32;;;;;;;11.85;4.68;;;;;;;;;;6176372;23;20013;-49
2022/06/14 03:06:58;;;;;;;6.63;4.25;;;;;;;;;;6180765;23;20015;-47
2022/06/14 03:09:26;;;;;;;9.80;4.97;;;;;;;;;;6174629;23;20083;-48
2022/06/14 03:12:10;;;;;;;10.85;6.30;;;;;;;;;;6179517;23;20131;-49
2022/06/14 03:14:53;;;;;;;7.18;4.50;;;;;;;;;;6174928;23;20100;-50
2022/06/14 03:17:38;;;;;;;9.95;4.55;;;;;;;;;;6172375;23;20022;-46
2022/06/14 03:20:07;;;;;;;8.27;4.63;;;;;;;;;;6180022;23;20839;-49
2022/06/14 03:22:32;;;;;;;8.40;4.93;;;;;;;;;;6173204;23;20021;-49
2022/06/14 03:25:00;;;;;;;7.37;5.40;;;;;;;;;;6179805;23;20009;-51
2022/06/14 03:27:35;;;;;;;10.55;6.55;;;;;;;;;;6169447;23;20237;-48
2022/06/14 03:30:21;;;;;;;12.15;5.63;;;;;;;;;;6177390;23;20013;-46
2022/06/14 03:32:58;;;;;;;9.07;4.82;;;;;;;;;;6152104;23;20009;-47
2022/06/14 03:35:26;;;;;;;10.93;4.82;;;;;;;;;;6174565;23;20032;-50
2022/06/14 03:37:52;;;;;;;10.32;5.35;;;;;;;;;;6175291;23;20069;-49
2022/06/14 03:40:18;;;;;;;9.82;5.25;;;;;;;;;;6175516;23;20363;-50
2022/06/14 03:42:44;;;;;;;8.73;4.60;;;;;;;;;;6178896;23;20032;-46
2022/06/14 03:45:10;;;;;;;11.50;5.40;;;;;;;;;;6181667;23;20509;-48
2022/06/14 03:47:35;;;;;;;9.15;5.15;;;;;;;;;;6178027;23;20039;-48
2022/06/14 03:50:09;;;;;;;7.88;5.00;;;;;;;;;;6177933;23;20080;-49
2022/06/14 03:52:54;;;;;;;8.43;4.90;;;;;;;;;;6181035;23;20009;-46
2022/06/14 03:55:19;;;;;;;17.27;5.15;;;;;;;;;;6174488;23;20028;-47
2022/06/14 03:57:44;;;;;;;11.82;5.03;;;;;;;;;;6179841;23;20013;-48
2022/06/14 04:00:25;;;;;;;8.70;4.93;;;;;;;;;;6176328;23;20021;-48
2022/06/14 04:02:53;;;;;;;9.38;5.32;;;;;;;;;;6179448;23;20223;-47
2022/06/14 04:05:37;;;;;;;13.68;5.68;;;;;;;;;;6174992;23;20028;-47
2022/06/14 04:08:21;;;;;;;10.90;5.68;;;;;;;;;;6174947;23;20729;-48
2022/06/14 04:11:08;;;;;;;12.45;6.15;;;;;;;;;;6176353;23;20061;-49
2022/06/14 04:13:52;;;;;;;7.05;5.03;;;;;;;;;;6175264;23;20467;-47
2022/06/14 04:16:25;;;;;;;7.93;5.22;;;;;;;;;;6170377;23;20502;-47
2022/06/14 04:18:54;;;;;;;13.02;5.40;;;;;;;;;;6181104;23;20029;-47
2022/06/14 04:21:19;;;;;;;6.63;4.82;;;;;;;;;;6175879;23;20009;-51
2022/06/14 04:23:45;;;;;;;5.80;4.60;;;;;;;;;;6179695;23;20009;-48
2022/06/14 04:26:18;;;;;;;10.02;5.15;;;;;;;;;;6174854;23;20854;-46
2022/06/14 04:28:58;;;;;;;14.10;5.35;;;;;;;;;;6178833;23;20024;-48
2022/06/14 04:31:31;;;;;;;11.38;5.03;;;;;;;;;;6175302;23;20044;-49
2022/06/14 04:34:12;;;;;;;12.65;5.28;;;;;;;;;;6175527;23;20005;-48
2022/06/14 04:36:56;;;;;;;10.40;5.13;;;;;;;;;;6176824;23;20020;-48
2022/06/14 04:39:27;;;;;;;10.60;4.53;;;;;;;;;;6176297;23;20009;-45
2022/06/14 04:41:56;;;;;;;12.90;5.80;;;;;;;;;;6178469;23;20017;-46
2022/06/14 04:44:40;;;;;;;9.57;5.13;;;;;;;;;;6173318;23;20106;-47
2022/06/14 04:47:12;;;;;;;9.48;5.40;;;;;;;;;;6181053;23;20490;-46
2022/06/14 04:49:59;;;;;;;12.02;6.15;;;;;;;;;;6174135;23;20075;-48
2022/06/14 04:52:28;;;;;;;9.13;5.35;;;;;;;;;;6177829;23;20164;-46
2022/06/14 04:55:00;;;;;;;12.20;5.53;;;;;;;;;;6178518;23;20088;-47
2022/06/14 04:57:44;;;;;;;7.63;5.82;;;;;;;;;;6119229;23;20080;-47
2022/06/14 05:00:12;;;;;;;11.65;6.00;;;;;;;;;;6148248;23;20016;-49
2022/06/14 05:02:38;;;;;;;12.02;5.97;;;;;;;;;;6150426;23;20017;-49
2022/06/14 05:05:09;;;;;;;9.57;5.38;;;;;;;;;;6144874;23;20010;-48
2022/06/14 05:07:43;;;;;;;14.05;6.40;;;;;;;;;;6123242;23;20487;-48
2022/06/14 05:10:37;;;;;;;13.32;5.80;;;;;;;;;;6145968;23;20032;-50
2022/06/14 05:13:14;;;;;;;12.55;5.68;;;;;;;;;;6119824;23;20076;-48
2022/06/14 05:15:44;;;;;;;8.52;5.07;;;;;;;;;;6121830;23;20511;-48
2022/06/14 05:18:12;;;;;;;8.85;4.63;;;;;;;;;;6144978;23;20020;-47
2022/06/14 05:20:39;;;;;;;11.88;5.57;;;;;;;;;;6146389;23;20029;-49
2022/06/14 05:23:12;;;;;;;13.50;5.10;;;;;;;;;;6145777;23;20623;-49
2022/06/14 05:25:56;;;;;;;15.23;5.07;;;;;;;;;;6123583;23;20044;-49
2022/06/14 05:28:41;;;;;;;9.68;4.63;;;;;;;;;;6147409;23;20052;-50
2022/06/14 05:31:21;;;;;;;7.47;4.50;;;;;;;;;;6144559;23;20013;-49
2022/06/14 05:33:52;;;;;;;7.03;4.18;;;;;;;;;;6173195;23;20065;-46
2022/06/14 05:36:19;;;;;;;7.57;4.20;;;;;;;;;;6173417;23;20013;-48
2022/06/14 05:38:49;;;;;;;7.53;3.70;;;;;;;;;;6173718;23;20062;-48
2022/06/14 05:41:14;;;;;;;;;;;;;;;;;;6180519;23;20009;-48
2022/06/14 05:43:43;;;;;;;7.95;3.67;;;;;;;;;;6173874;23;19911;-46
2022/06/14 05:46:21;;;;;;;5.57;3.58;;;;;;;;;;6176288;23;20009;-48
2022/06/14 05:48:51;;;;;;;4.68;2.83;;;;;;;;;;6177685;23;20025;-47
2022/06/14 05:51:16;;;;;;;;;;;;;;;;;;6175862;23;20028;-49
2022/06/14 05:53:57;;;;;;;9.32;4.15;;;;;;;;;;6178309;23;19904;-45
2022/06/14 05:56:31;;;;;;;7.28;3.80;;;;;;;;;;6172086;23;20044;-48
2022/06/14 05:59:01;;;;;;;12.00;3.50;;;;;;;;;;6174664;23;20092;-50
2022/06/14 06:01:46;;;;;;;10.00;3.95;;;;;;;;;;6172895;23;20005;-51
2022/06/14 06:04:23;;;;;;;7.85;3.55;;;;;;;;;;6151463;23;20001;-47
2022/06/14 06:06:50;;;;;;;9.55;3.35;;;;;;;;;;6177019;23;20023;-47
2022/06/14 06:09:18;;;;;;;10.38;3.20;;;;;;;;;;6178062;23;20053;-50
2022/06/14 06:11:48;;;;;;;6.65;2.95;;;;;;;;;;6174004;23;20013;-46
2022/06/14 06:14:19;;;;;;;3.20;2.55;;;;;;;;;;6175789;23;20021;-47
2022/06/14 06:19:24;;;;;;;8.20;3.20;;;;;;;;;;6174648;23;20017;-47
2022/06/14 06:21:50;;;;;;;10.77;3.67;;;;;;;;;;6146911;23;20012;-46
2022/06/14 06:24:18;;;;;;;6.32;2.58;;;;;;;;;;6149501;23;20022;-49
2022/06/14 06:26:48;;;;;;;13.75;3.78;;;;;;;;;;6176564;23;20033;-47
2022/06/14 06:29:17;;;;;;;5.07;2.50;;;;;;;;;;6174886;23;20029;-47
2022/06/14 06:31:43;;;;;;;4.95;3.08;;;;;;;;;;6176831;23;20100;-47
2022/06/14 06:34:13;;;;;;;8.02;3.10;;;;;;;;;;6179644;23;20013;-49
2022/06/14 06:36:38;;;;;;;;;;;;;;;;;;6178986;23;20017;-53
2022/06/14 06:39:09;;;;;;;5.63;2.60;;;;;;;;;;6181531;23;19914;-49
2022/06/14 06:41:50;;;;;;;4.55;3.28;;;;;;;;;;6146821;23;20016;-48
2022/06/14 06:44:18;;;;;;;13.25;4.15;;;;;;;;;;6180931;23;20171;-47
2022/06/14 06:46:48;;;;;;;7.47;3.25;;;;;;;;;;6173242;23;20135;-48
2022/06/14 06:49:15;;;;;;;12.25;3.60;;;;;;;;;;6180941;23;20202;-51
2022/06/14 06:51:43;;;;;;;9.23;3.30;;;;;;;;;;6177809;23;20096;-50
2022/06/14 06:54:15;;;;;;;15.85;3.75;;;;;;;;;;6151533;23;20420;-48
2022/06/14 06:56:42;;;;;;;6.75;3.92;;;;;;;;;;6179550;23;20013;-46
2022/06/14 06:59:13;;;;;;;10.65;4.50;;;;;;;;;;6178157;23;20024;-46
2022/06/14 07:01:39;;;;;;;8.98;4.28;;;;;;;;;;6181893;23;20464;-52
2022/06/14 07:04:07;;;;;;;17.10;5.28;;;;;;;;;;6177774;23;20017;-46
2022/06/14 07:06:38;;;;;;;15.45;4.97;;;;;;;;;;6178547;23;20640;-49
2022/06/14 07:09:19;;;;;;;15.80;5.18;;;;;;;;;;6176001;23;20021;-47
2022/06/14 07:11:47;;;;;;;8.27;5.07;;;;;;;;;;6176656;23;20466;-50
2022/06/14 07:14:15;;;;;;;15.18;5.40;;;;;;;;;;6178729;23;20009;-48
2022/06/14 07:16:44;;;;;;;13.55;5.90;;;;;;;;;;6175273;23;20491;-50
2022/06/14 07:19:17;;;;;;;13.52;5.72;;;;;;;;;;6179236;23;20019;-47
2022/06/14 07:21:52;;;;;;;10.73;5.00;;;;;;;;;;6175355;23;20088;-46
2022/06/14 07:24:27;;;;;;;10.10;4.82;;;;;;;;;;6179084;23;20070;-50
2022/06/14 07:26:55;;;;;;;17.50;6.22;;;;;;;;;;6178773;23;20005;-48
2022/06/14 07:29:21;;;;;;;11.45;5.57;;;;;;;;;;6170376;23;20032;-47
2022/06/14 07:31:46;;;;;;;12.33;5.73;;;;;;;;;;6180007;23;20013;-48
2022/06/14 07:34:13;;;;;;;14.02;5.50;;;;;;;;;;6175987;23;20246;-46
2022/06/14 07:36:41;;;;;;;13.27;5.10;;;;;;;;;;6178434;23;20085;-48
2022/06/14 07:39:17;;;;;;;13.48;6.32;;;;;;;;;;6177628;23;20362;-51
2022/06/14 07:41:49;;;;;;;12.85;5.10;;;;;;;;;;6176005;23;20633;-51
2022/06/14 07:44:17;;;;;;;10.98;5.18;;;;;;;;;;6171178;23;20013;-48
2022/06/14 07:46:43;;;;;;;14.82;5.70;;;;;;;;;;6176111;23;20001;-46
2022/06/14 07:49:11;;;;;;;8.65;4.88;;;;;;;;;;6180079;23;20046;-47
2022/06/14 07:51:50;;;;;;;20.02;7.07;;;;;;;;;;6176713;23;20051;-50
2022/06/14 07:54:30;;;;;;;9.75;4.82;;;;;;;;;;6173434;23;20017;-47
2022/06/14 07:57:01;;;;;;;15.50;5.13;;;;;;;;;;6128738;23;20013;-46
2022/06/14 07:59:34;;;;;;;12.68;5.32;;;;;;;;;;6149705;23;20013;-49
2022/06/14 08:02:05;;;;;;;13.75;5.40;;;;;;;;;;6146368;23;20013;-46
2022/06/14 08:04:49;;;;;;;8.18;4.25;;;;;;;;;;6141325;23;20124;-46
2022/06/14 08:07:16;;;;;;;9.93;4.32;;;;;;;;;;6145336;23;20048;-51
2022/06/14 08:09:41;;;;;;;9.30;4.22;;;;;;;;;;6144140;23;20579;-47
2022/06/14 08:12:12;;;;;;;15.02;5.63;;;;;;;;;;6145447;23;20013;-48
2022/06/14 08:14:46;;;;;;;11.20;4.10;;;;;;;;;;6140228;23;20006;-46
2022/06/14 08:17:14;;;;;;;9.43;3.97;;;;;;;;;;6143696;23;20484;-47
2022/06/14 08:19:42;;;;;;;7.18;4.20;;;;;;;;;;6140098;23;20045;-46
2022/06/14 08:22:11;;;;;;;22.38;4.72;;;;;;;;;;6143202;23;20017;-46
2022/06/14 08:24:39;;;;;;;8.35;4.68;;;;;;;;;;6106003;23;20403;-46
2022/06/14 08:27:10;;;;;;;11.07;3.92;;;;;;;;;;6144357;23;20083;-50
2022/06/14 08:29:39;;;;;;;10.32;4.05;;;;;;;;;;6117688;23;20474;-46
2022/06/14 08:32:11;;;;;;;6.72;3.85;;;;;;;;;;6150512;23;20582;-47
2022/06/14 08:34:49;;;;;;;14.57;5.53;;;;;;;;;;6138764;23;20527;-47
2022/06/14 08:37:14;;;;;;;12.10;4.68;;;;;;;;;;6148832;23;20029;-50
2022/06/14 08:39:41;;;;;;;8.67;3.97;;;;;;;;;;6144538;23;20057;-46
2022/06/14 08:42:07;;;;;;;4.50;2.92;;;;;;;;;;6150811;23;20228;-47
2022/06/14 08:44:34;;;;;;;8.32;3.20;;;;;;;;;;6146480;23;20024;-48
2022/06/14 08:47:09;;;;;;;7.15;3.03;;;;;;;;;;6144098;23;20523;-48
2022/06/14 08:49:49;;;;;;;9.32;3.38;;;;;;;;;;6148712;23;20523;-48
2022/06/14 08:52:20;;;;;;;3.50;2.35;;;;;;;;;;6144953;23;20018;-48
2022/06/14 08:55:06;;;;;;;4.88;2.38;;;;;;;;;;6147475;23;20089;-48
2022/06/14 08:57:47;;;;;;;3.40;2.22;;;;;;;;;;6122774;23;20024;-47
2022/06/14 09:00:31;;;;;;;4.28;2.45;;;;;;;;;;6141946;23;20037;-46
2022/06/14 09:02:57;;;;;;;9.50;3.60;;;;;;;;;;6174389;23;20013;-46
2022/06/14 09:05:32;;;;;;;8.10;3.38;;;;;;;;;;6173609;23;20016;-46
2022/06/14 09:08:05;;;;;;;6.35;3.45;;;;;;;;;;6179631;23;20028;-50
2022/06/14 09:10:49;;;;;;;6.85;3.05;;;;;;;;;;6173214;23;20017;-46
2022/06/14 09:13:33;;;;;;;8.95;2.67;;;;;;;;;;6175892;23;20056;-50
2022/06/14 09:15:58;;;;;;;9.00;3.67;;;;;;;;;;6151893;23;20020;-47
2022/06/14 09:18:45;;;;;;;5.80;3.67;;;;;;;;;;6176561;23;20029;-48
2022/06/14 09:21:16;;;;;;;7.80;3.13;;;;;;;;;;6173808;23;20415;-49
2022/06/14 09:23:59;;;;;;;9.43;3.95;;;;;;;;;;6180151;23;20068;-48
2022/06/14 09:26:31;;;;;;;14.18;4.43;;;;;;;;;;6173783;23;20462;-47
2022/06/14 09:29:15;;;;;;;9.05;3.95;;;;;;;;;;6177423;23;20021;-46
2022/06/14 09:31:53;;;;;;;12.05;3.65;;;;;;;;;;6171340;23;20068;-49
2022/06/14 09:34:18;;;;;;;11.75;3.53;;;;;;;;;;6177255;23;20009;-49
2022/06/14 09:37:03;;;;;;;8.43;3.42;;;;;;;;;;6174321;23;20079;-49
2022/06/14 09:39:34;;;;;;;17.42;4.07;;;;;;;;;;6171398;23;20048;-48
2022/06/14 09:42:03;;;;;;;8.52;3.22;;;;;;;;;;6180128;23;20016;-48
2022/06/14 09:44:45;;;;;;;6.80;3.17;;;;;;;;;;6174260;23;20432;-48
2022/06/14 09:47:13;;;;;;;5.20;2.55;;;;;;;;;;6178976;23;20475;-49
2022/06/14 09:49:48;;;;;;;6.07;2.65;;;;;;;;;;6175680;23;20633;-46
2022/06/14 09:52:17;;;;;;;5.25;2.17;;;;;;;;;;6175630;23;20021;-53
2022/06/14 09:55:09;;;;;;;4.32;2.50;;;;;;;;;;6153586;23;20136;-47
2022/06/14 09:57:39;;;;;;;6.25;2.42;;;;;;;;;;6090001;23;20032;-46
2022/06/14 10:00:31;;;;;;;4.88;2.67;;;;;;;;;;6118995;23;20096;-48
2022/06/14 10:03:19;;;;;;;5.57;2.60;;;;;;;;;;6119447;23;20014;-50
2022/06/14 10:06:03;;;;;;;4.28;2.58;;;;;;;;;;6159433;23;20017;-48
2022/06/14 10:08:41;;;;;;;5.93;2.22;;;;;;;;;;6172987;23;20602;-47
2022/06/14 10:11:17;;;;;;;5.13;2.88;;;;;;;;;;6174589;23;20009;-47
2022/06/14 10:13:43;;;;;;;3.80;2.40;;;;;;;;;;6179917;23;20246;-47
2022/06/14 10:16:16;;;;;;;6.65;2.58;;;;;;;;;;6173347;23;20611;-48
2022/06/14 10:18:50;;;;;;;4.35;2.35;;;;;;;;;;6178488;23;20001;-47
2022/06/14 10:21:32;;;;;;;5.07;2.50;;;;;;;;;;6175088;23;20017;-50
2022/06/14 10:23:57;;;;;;;3.20;2.47;;;;;;;;;;6170525;23;20043;-47
2022/06/14 10:29:18;;;;;;;4.60;2.55;;;;;;;;;;6175418;23;20483;-46
2022/06/14 10:31:57;;;;;;;4.32;2.50;;;;;;;;;;6178152;23;20024;-46
2022/06/14 10:34:22;;;;;;;7.88;2.70;;;;;;;;;;6173328;23;20013;-48
2022/06/14 10:36:56;;;;;;;4.15;2.35;;;;;;;;;;6175902;23;20020;-48
2022/06/14 10:39:21;;;;;;;6.15;2.10;;;;;;;;;;6175024;23;20028;-46
2022/06/14 10:42:06;;;;;;;3.58;2.40;;;;;;;;;;6178894;23;20044;-49
2022/06/14 10:44:41;;;;;;;7.85;2.65;;;;;;;;;;6172661;23;20018;-46
2022/06/14 10:47:17;;;;;;;4.60;2.15;;;;;;;;;;6177950;23;20016;-48
2022/06/14 10:50:00;;;;;;;4.40;2.33;;;;;;;;;;6166803;23;20017;-47
2022/06/14 10:52:40;;;;;;;6.88;2.40;;;;;;;;;;6175708;23;20748;-46
2022/06/14 10:55:26;;;;;;;4.22;2.30;;;;;;;;;;6176296;23;20013;-48
2022/06/14 10:58:08;;;;;;;6.53;2.15;;;;;;;;;;6176367;23;20036;-45
2022/06/14 11:00:33;;;;;;;7.93;3.28;;;;;;;;;;6172662;23;20744;-47
2022/06/14 11:03:17;;;;;;;5.35;2.38;;;;;;;;;;6177237;23;20017;-45
2022/06/14 11:06:06;;;;;;;4.97;2.92;;;;;;;;;;6159158;23;20010;-47
2022/06/14 11:08:48;;;;;;;5.40;2.08;;;;;;;;;;6147001;23;20022;-49
2022/06/14 11:11:25;;;;;;;4.65;2.50;;;;;;;;;;6143940;23;20014;-50
2022/06/14 11:14:02;;;;;;;5.47;2.72;;;;;;;;;;6149333;23;20016;-49
2022/06/14 11:16:34;;;;;;;3.55;2.47;;;;;;;;;;6171683;23;20024;-46
2022/06/14 11:19:05;;;;;;;4.07;2.00;;;;;;;;;;6179837;23;20037;-47
2022/06/14 11:21:34;;;;;;;3.83;2.13;;;;;;;;;;6176583;23;20052;-49
2022/06/14 11:24:04;;;;;;;3.83;2.25;;;;;;;;;;6181009;23;20020;-49
2022/06/14 11:26:29;;;;;;;5.28;2.25;;;;;;;;;;6173828;23;20009;-46
2022/06/14 11:29:02;;;;;;;5.60;2.57;;;;;;;;;;6178414;23;20035;-47
2022/06/14 11:31:33;;;;;;;5.07;2.55;;;;;;;;;;6174765;23;20246;-46
2022/06/14 11:33:59;;;;;;;3.20;2.22;;;;;;;;;;6179326;23;20021;-47
2022/06/14 11:36:24;;;;;;;5.63;2.47;;;;;;;;;;6149803;23;20020;-49
2022/06/14 11:38:49;;;;;;;5.13;2.55;;;;;;;;;;6180843;23;20223;-50
2022/06/14 11:41:17;;;;;;;4.00;2.50;;;;;;;;;;6175694;23;20024;-49
2022/06/14 11:43:42;;;;;;;5.00;2.53;;;;;;;;;;6180921;23;20005;-47
2022/06/14 11:46:16;;;;;;;5.07;2.28;;;;;;;;;;6180008;23;20009;-49
2022/06/14 11:48:50;;;;;;;2.72;2.10;;;;;;;;;;6175358;23;20033;-48
2022/06/14 11:51:28;;;;;;;4.65;1.90;;;;;;;;;;6178225;23;20059;-46
2022/06/14 11:53:56;;;;;;;4.60;2.60;;;;;;;;;;6175626;23;20200;-49
2022/06/14 11:56:25;;;;;;;3.92;2.25;;;;;;;;;;6176995;23;20087;-49
2022/06/14 11:58:50;;;;;;;6.80;2.53;;;;;;;;;;6175864;23;20036;-46
2022/06/14 12:01:37;;;;;;;4.28;2.00;;;;;;;;;;6150648;23;20017;-46
2022/06/14 12:04:17;;;;;;;8.55;3.10;;;;;;;;;;6174930;23;20013;-47
2022/06/14 12:06:46;;;;;;;3.90;2.17;;;;;;;;;;6179379;23;20009;-51
2022/06/14 12:09:30;;;;;;;4.80;2.08;;;;;;;;;;6177322;23;20068;-47
2022/06/14 12:11:59;;;;;;;10.15;3.25;;;;;;;;;;6177406;23;20009;-49
2022/06/14 12:14:25;;;;;;;6.90;2.53;;;;;;;;;;6172607;23;20635;-48
2022/06/14 12:16:58;;;;;;;6.57;2.05;;;;;;;;;;6178451;23;20061;-50
2022/06/14 12:19:26;;;;;;;5.03;1.73;;;;;;;;;;6178905;23;20086;-47
2022/06/14 12:21:57;;;;;;;5.85;2.05;;;;;;;;;;6173515;23;20036;-49
2022/06/14 12:26:34;;;;;;;4.43;2.22;;;;;;;;;;6178414;23;20040;-48
2022/06/14 12:27:13;;;;;;;3.67;1.65;;;;;;;;;;6175151;23;20375;-49
2022/06/14 12:29:40;;;;;;;6.53;2.05;;;;;;;;;;6175727;23;20134;-46
2022/06/14 12:32:11;;;;;;;3.63;2.10;;;;;;;;;;6172375;23;20234;-47
2022/06/14 12:34:56;;;;;;;4.22;1.95;;;;;;;;;;6180923;23;20005;-48
2022/06/14 12:37:22;;;;;;;3.58;2.17;;;;;;;;;;6178912;23;20028;-46
2022/06/14 12:39:51;;;;;;;3.65;2.05;;;;;;;;;;6174349;23;20443;-47
2022/06/14 12:42:16;;;;;;;6.10;2.70;;;;;;;;;;6179659;23;20069;-48
2022/06/14 12:44:56;;;;;;;2.97;2.13;;;;;;;;;;6174895;23;20036;-46
2022/06/14 12:47:25;;;;;;;4.03;1.70;;;;;;;;;;6178430;23;20017;-49
2022/06/14 12:49:53;;;;;;;5.00;2.03;;;;;;;;;;6168831;23;20032;-47
2022/06/14 12:52:25;;;;;;;4.75;2.20;;;;;;;;;;6168567;23;20017;-51
2022/06/14 12:55:01;;;;;;;5.82;1.90;;;;;;;;;;6170118;23;20053;-49
2022/06/14 12:57:29;;;;;;;4.30;2.15;;;;;;;;;;6153700;23;20405;-48
2022/06/14 13:00:02;;;;;;;4.22;2.45;;;;;;;;;;6172629;23;20604;-48
2022/06/14 13:02:30;;;;;;;4.25;2.30;;;;;;;;;;6171539;23;20013;-47
2022/06/14 13:04:59;;;;;;;3.97;1.92;;;;;;;;;;6180020;23;20017;-47
2022/06/14 13:07:30;;;;;;;4.28;2.67;;;;;;;;;;6174697;23;20020;-49
2022/06/14 13:09:58;;;;;;;3.58;1.95;;;;;;;;;;6177147;23;20044;-49
2022/06/14 13:12:31;;;;;;;4.05;2.35;;;;;;;;;;6175561;23;20588;-47
2022/06/14 13:15:07;;;;;;;6.80;1.95;;;;;;;;;;6151982;23;20039;-47
2022/06/14 13:17:49;;;;;;;5.60;2.28;;;;;;;;;;6173416;23;20009;-49
2022/06/14 13:20:33;;;;;;;4.28;1.95;;;;;;;;;;6174518;23;20032;-50
2022/06/14 13:23:07;;;;;;;3.63;2.75;;;;;;;;;;6177680;23;20080;-48
2022/06/14 13:25:53;;;;;;;5.40;1.98;;;;;;;;;;6170486;23;20412;-48
2022/06/14 13:28:18;;;;;;;6.60;2.55;;;;;;;;;;6091239;23;20644;-50
2022/06/14 13:30:58;;;;;;;5.00;2.58;;;;;;;;;;6168929;23;20028;-48
2022/06/14 13:33:39;;;;;;;6.38;2.65;;;;;;;;;;6166818;23;20047;-47
2022/06/14 13:36:17;;;;;;;3.90;1.92;;;;;;;;;;6168878;23;20009;-46
2022/06/14 13:38:57;;;;;;;3.95;1.80;;;;;;;;;;6167982;23;20020;-48
2022/06/14 13:41:30;;;;;;;5.78;2.50;;;;;;;;;;6165368;23;20051;-48
2022/06/14 13:43:58;;;;;;;2.60;1.80;;;;;;;;;;6176073;23;20808;-50
2022/06/14 13:46:33;;;;;;;4.25;2.10;;;;;;;;;;6172980;23;20009;-49
2022/06/14 13:49:15;;;;;;;3.50;2.45;;;;;;;;;;6180094;23;20226;-48
2022/06/14 13:51:43;;;;;;;4.13;2.30;;;;;;;;;;6173632;23;20029;-48
2022/06/14 13:54:15;;;;;;;3.97;2.25;;;;;;;;;;6173631;23;20009;-49
2022/06/14 13:56:45;;;;;;;2.78;1.88;;;;;;;;;;6177697;23;20017;-49
2022/06/14 13:59:13;;;;;;;5.35;2.00;;;;;;;;;;6177700;23;20031;-46
2022/06/14 14:01:42;;;;;;;4.27;2.27;;;;;;;;;;6177085;23;20020;-51
2022/06/14 14:04:26;;;;;;;2.58;1.65;;;;;;;;;;6172984;23;20909;-48
2022/06/14 14:06:55;;;;;;;11.60;2.15;;;;;;;;;;6173555;23;20261;-49
2022/06/14 14:09:38;;;;;;;5.22;2.42;;;;;;;;;;6174402;23;20055;-49
2022/06/14 14:12:04;;;;;;;5.97;2.10;;;;;;;;;;6146232;23;20556;-49
2022/06/14 14:14:35;;;;;;;3.15;1.80;;;;;;;;;;6173604;23;20028;-48
2022/06/14 14:17:00;;;;;;;3.17;1.85;;;;;;;;;;6176047;23;20006;-47
2022/06/14 14:19:43;;;;;;;3.60;1.90;;;;;;;;;;6178038;23;20255;-48
2022/06/14 14:22:17;;;;;;;2.80;1.88;;;;;;;;;;6150816;23;20267;-50
2022/06/14 14:24:49;;;;;;;4.45;2.53;;;;;;;;;;6177760;23;20049;-49
2022/06/14 14:27:17;;;;;;;4.05;1.98;;;;;;;;;;6172412;23;20047;-52
2022/06/14 14:30:00;;;;;;;3.03;2.13;;;;;;;;;;6178704;23;20044;-47
2022/06/14 14:32:38;;;;;;;4.78;2.42;;;;;;;;;;6171272;23;20017;-51
2022/06/14 14:35:08;;;;;;;4.30;2.03;;;;;;;;;;6175018;23;20066;-50
2022/06/14 14:37:41;;;;;;;4.72;2.05;;;;;;;;;;6172374;23;20412;-50
2022/06/14 14:40:07;;;;;;;5.97;1.77;;;;;;;;;;6175396;23;20017;-47
2022/06/14 14:42:33;;;;;;;3.95;2.47;;;;;;;;;;6171349;23;20033;-48
2022/06/14 14:45:03;;;;;;;2.22;1.50;;;;;;;;;;6177183;23;20023;-53
2022/06/14 14:47:40;;;;;;;3.13;2.17;;;;;;;;;;6176510;23;20048;-47
2022/06/14 14:50:11;;;;;;;4.22;1.77;;;;;;;;;;6173356;23;20029;-49
2022/06/14 14:52:55;;;;;;;7.30;1.90;;;;;;;;;;6176866;23;20017;-50
2022/06/14 14:55:40;;;;;;;4.20;2.00;;;;;;;;;;6177708;23;20495;-52
2022/06/14 14:58:15;;;;;;;6.15;1.92;;;;;;;;;;6174437;23;20017;-49
2022/06/14 15:06:45;;;;;;;3.67;1.90;;;;;;;;;;6144268;23;20011;-49
2022/06/14 15:09:16;;;;;;;4.40;2.00;;;;;;;;;;6148157;23;20021;-47
2022/06/14 15:11:52;;;;;;;3.60;1.90;;;;;;;;;;6170971;23;20009;-48
2022/06/14 15:14:22;;;;;;;2.58;1.75;;;;;;;;;;6177874;23;20013;-48
2022/06/14 15:16:51;;;;;;;5.00;2.13;;;;;;;;;;6178441;23;20016;-50
2022/06/14 15:22:21;;;;;;;3.55;1.65;;;;;;;;;;6168664;23;20024;-48
2022/06/14 15:24:48;;;;;;;9.18;2.45;;;;;;;;;;6178059;23;20013;-47
2022/06/14 15:27:16;;;;;;;7.15;1.98;;;;;;;;;;6178978;23;20064;-53
2022/06/14 15:29:47;;;;;;;4.35;2.67;;;;;;;;;;6174676;23;20418;-46
2022/06/14 15:32:13;;;;;;;5.68;1.80;;;;;;;;;;6151956;23;20085;-46